createdAt,value
2018-06-29T00:00:25.671Z,7.03
2018-06-29T00:02:54.565Z,5.80
2018-06-29T00:05:23.837Z,7.27
2018-06-29T00:07:53.397Z,5.80
2018-06-29T00:10:24.251Z,10.17
2018-06-29T00:12:54.254Z,9.20
2018-06-29T00:15:24.065Z,9.20
2018-06-29T00:17:53.350Z,8.07
2018-06-29T00:20:22.491Z,9.53
2018-06-29T00:22:51.348Z,9.03
2018-06-29T00:25:20.300Z,8.60
2018-06-29T00:27:49.438Z,7.37
2018-06-29T00:30:18.578Z,11.13
2018-06-29T00:32:47.665Z,8.07
2018-06-29T00:35:17.317Z,10.77
2018-06-29T00:37:46.452Z,7.73
2018-06-29T00:40:15.297Z,9.40
2018-06-29T00:42:44.678Z,8.97
2018-06-29T00:45:14.891Z,10.93
2018-06-29T00:47:44.120Z,12.20
2018-06-29T00:50:13.518Z,8.63
2018-06-29T00:52:42.690Z,7.67
2018-06-29T00:55:12.627Z,8.47
2018-06-29T00:57:41.683Z,7.03
2018-06-29T01:00:10.688Z,7.53
2018-06-29T01:02:39.780Z,6.97
2018-06-29T01:05:08.913Z,6.37
2018-06-29T01:07:38.225Z,7.83
2018-06-29T01:10:07.494Z,6.40
2018-06-29T01:12:36.692Z,8.27
2018-06-29T01:15:05.954Z,7.47
2018-06-29T01:17:34.856Z,6.30
2018-06-29T01:20:03.773Z,6.43
2018-06-29T01:22:32.605Z,6.90
2018-06-29T01:25:01.406Z,9.30
2018-06-29T01:27:30.265Z,6.80
2018-06-29T01:29:59.165Z,9.33
2018-06-29T01:32:28.042Z,12.20
2018-06-29T01:34:56.891Z,7.57
2018-06-29T01:37:25.701Z,9.00
2018-06-29T01:39:54.525Z,12.27
2018-06-29T01:42:23.337Z,11.77
2018-06-29T01:44:52.288Z,10.03
2018-06-29T01:47:21.190Z,9.97
2018-06-29T01:49:49.673Z,14.00
2018-06-29T01:52:18.568Z,9.23
2018-06-29T01:54:47.572Z,10.07
2018-06-29T01:57:16.512Z,8.43
2018-06-29T01:59:46.191Z,12.47
2018-06-29T02:02:14.989Z,10.17
2018-06-29T02:04:43.816Z,8.00
2018-06-29T02:07:12.694Z,6.10
2018-06-29T02:09:41.532Z,6.70
2018-06-29T02:12:12.937Z,6.70
2018-06-29T02:14:45.561Z,6.67
2018-06-29T02:17:13.975Z,7.17
2018-06-29T02:19:42.875Z,7.57
2018-06-29T02:22:11.924Z,8.77
2018-06-29T02:24:40.760Z,6.90
2018-06-29T02:27:09.705Z,10.97
2018-06-29T02:29:38.513Z,7.77
2018-06-29T02:32:07.015Z,6.63
2018-06-29T02:34:35.966Z,9.33
2018-06-29T02:37:05.095Z,8.60
2018-06-29T02:39:33.950Z,6.60
2018-06-29T02:42:03.317Z,11.80
2018-06-29T02:44:32.332Z,8.10
2018-06-29T02:47:01.557Z,10.20
2018-06-29T02:49:30.841Z,7.57
2018-06-29T02:51:59.921Z,8.00
2018-06-29T02:54:29.324Z,10.00
2018-06-29T02:56:58.620Z,7.67
2018-06-29T02:59:27.997Z,10.50
2018-06-29T03:01:57.025Z,7.77
2018-06-29T03:04:26.629Z,9.27
2018-06-29T03:06:55.725Z,8.10
2018-06-29T03:09:25.107Z,9.23
2018-06-29T03:11:54.260Z,8.23
2018-06-29T03:14:23.222Z,8.10
2018-06-29T03:16:52.378Z,9.77
2018-06-29T03:19:21.167Z,9.57
2018-06-29T03:21:50.029Z,10.77
2018-06-29T03:24:18.905Z,10.97
2018-06-29T03:26:47.776Z,8.70
2018-06-29T03:29:16.918Z,12.90
2018-06-29T03:31:46.246Z,11.73
2018-06-29T03:34:15.561Z,12.50
2018-06-29T03:36:45.143Z,10.27
2018-06-29T03:39:14.284Z,10.73
2018-06-29T03:41:43.272Z,9.50
2018-06-29T03:46:59.534Z,12.67
2018-06-29T03:49:28.395Z,9.70
2018-06-29T03:51:57.371Z,10.57
2018-06-29T03:54:26.345Z,8.70
2018-06-29T03:56:55.238Z,11.30
2018-06-29T03:59:24.517Z,11.93
2018-06-29T04:01:53.448Z,12.10
2018-06-29T04:04:22.298Z,10.83
2018-06-29T04:06:51.872Z,11.70
2018-06-29T04:09:21.080Z,10.60
2018-06-29T04:11:50.091Z,10.73
2018-06-29T04:14:19.025Z,8.87
2018-06-29T04:16:48.113Z,10.33
2018-06-29T04:19:17.124Z,13.13
2018-06-29T04:21:46.380Z,11.63
2018-06-29T04:24:14.853Z,13.23
2018-06-29T04:26:44.851Z,14.57
2018-06-29T04:29:13.670Z,11.37
2018-06-29T04:31:42.502Z,11.77
2018-06-29T04:34:11.440Z,10.23
2018-06-29T04:36:40.716Z,12.17
2018-06-29T04:39:10.648Z,13.13
2018-06-29T04:41:39.636Z,10.10
2018-06-29T04:44:08.495Z,15.77
2018-06-29T04:46:37.707Z,12.67
2018-06-29T04:49:06.595Z,11.27
2018-06-29T04:51:35.469Z,8.83
2018-06-29T04:54:04.424Z,9.30
2018-06-29T04:56:33.671Z,12.57
2018-06-29T04:59:02.576Z,9.80
2018-06-29T05:01:31.428Z,11.33
2018-06-29T05:04:00.292Z,11.67
2018-06-29T05:06:29.172Z,13.13
2018-06-29T05:08:58.428Z,10.80
2018-06-29T05:11:27.901Z,11.60
2018-06-29T05:16:32.073Z,10.03
2018-06-29T05:19:01.623Z,12.27
2018-06-29T05:21:30.989Z,10.50
2018-06-29T05:24:00.900Z,11.87
2018-06-29T05:26:29.888Z,13.87
2018-06-29T05:28:58.942Z,14.03
2018-06-29T05:31:27.756Z,13.33
2018-06-29T05:33:56.831Z,13.50
2018-06-29T05:36:26.252Z,11.00
2018-06-29T05:38:55.181Z,10.77
2018-06-29T05:41:24.339Z,9.33
2018-06-29T05:43:53.436Z,10.50
2018-06-29T05:46:22.536Z,11.07
2018-06-29T05:48:51.628Z,13.73
2018-06-29T05:51:20.749Z,11.63
2018-06-29T05:53:50.921Z,10.90
2018-06-29T05:56:19.929Z,14.63
2018-06-29T05:58:48.900Z,8.83
2018-06-29T06:01:17.806Z,11.30
2018-06-29T06:03:46.965Z,13.50
2018-06-29T06:06:16.138Z,13.73
2018-06-29T06:08:45.364Z,9.87
2018-06-29T06:11:14.447Z,10.03
2018-06-29T06:13:43.620Z,11.53
2018-06-29T06:16:12.717Z,12.13
2018-06-29T06:18:41.373Z,10.80
2018-06-29T06:21:10.212Z,9.80
2018-06-29T06:23:39.107Z,10.07
2018-06-29T06:26:08.456Z,9.87
2018-06-29T06:28:37.333Z,9.63
2018-06-29T06:31:06.188Z,14.27
2018-06-29T06:33:35.030Z,11.03
2018-06-29T06:36:03.892Z,12.90
2018-06-29T06:38:32.744Z,12.50
2018-06-29T06:41:01.699Z,11.20
2018-06-29T06:43:30.588Z,10.27
2018-06-29T06:45:59.490Z,11.07
2018-06-29T06:48:28.384Z,9.80
2018-06-29T06:50:57.392Z,7.37
2018-06-29T06:53:26.293Z,9.40
2018-06-29T06:55:55.213Z,11.63
2018-06-29T06:58:25.136Z,8.70
2018-06-29T07:00:54.162Z,10.90
2018-06-29T07:03:25.952Z,10.97
2018-06-29T07:05:55.854Z,10.87
2018-06-29T07:08:26.466Z,8.20
2018-06-29T07:10:55.304Z,8.47
2018-06-29T07:13:24.198Z,9.70
2018-06-29T07:15:53.159Z,8.57
2018-06-29T07:18:22.489Z,9.00
2018-06-29T07:20:52.807Z,9.43
2018-06-29T07:23:22.226Z,9.73
2018-06-29T07:25:51.882Z,10.10
2018-06-29T07:28:21.112Z,8.70
2018-06-29T07:30:50.285Z,8.13
2018-06-29T07:33:19.148Z,7.20
2018-06-29T07:35:48.105Z,8.43
2018-06-29T07:38:16.900Z,8.80
2018-06-29T07:40:46.128Z,7.27
2018-06-29T07:43:14.768Z,8.87
2018-06-29T07:45:44.018Z,7.87
2018-06-29T07:48:12.935Z,7.93
2018-06-29T07:50:41.820Z,7.30
2018-06-29T07:53:11.004Z,9.60
2018-06-29T07:55:40.466Z,9.03
2018-06-29T07:58:09.611Z,12.77
2018-06-29T08:00:38.873Z,11.43
2018-06-29T08:03:07.860Z,7.43
2018-06-29T08:05:36.885Z,6.73
2018-06-29T08:08:06.517Z,6.27
2018-06-29T08:10:35.631Z,8.57
2018-06-29T08:13:04.504Z,5.93
2018-06-29T08:15:33.357Z,7.27
2018-06-29T08:18:02.149Z,7.23
2018-06-29T08:20:31.373Z,6.97
2018-06-29T08:23:00.723Z,6.97
2018-06-29T08:25:30.055Z,7.40
2018-06-29T08:27:59.477Z,8.27
2018-06-29T08:30:28.593Z,11.70
2018-06-29T08:32:57.627Z,7.33
2018-06-29T08:35:26.473Z,7.63
2018-06-29T08:37:55.374Z,7.47
2018-06-29T08:40:25.223Z,5.80
2018-06-29T08:42:54.096Z,5.43
2018-06-29T08:45:23.268Z,5.60
2018-06-29T08:47:52.168Z,6.80
2018-06-29T08:50:21.900Z,6.70
2018-06-29T08:52:50.746Z,5.40
2018-06-29T08:55:19.658Z,6.13
2018-06-29T08:57:48.490Z,5.80
2018-06-29T09:00:16.951Z,6.67
2018-06-29T09:02:45.960Z,8.33
2018-06-29T09:05:14.784Z,6.20
2018-06-29T09:07:43.681Z,7.53
2018-06-29T09:10:12.696Z,5.00
2018-06-29T09:12:42.119Z,4.83
2018-06-29T09:15:11.201Z,5.10
2018-06-29T09:17:40.353Z,5.30
2018-06-29T09:20:09.641Z,4.90
2018-06-29T09:22:39.453Z,5.73
2018-06-29T09:25:08.479Z,4.57
2018-06-29T09:27:37.284Z,5.20
2018-06-29T09:30:07.122Z,4.83
2018-06-29T09:32:36.169Z,5.17
2018-06-29T09:35:04.664Z,5.43
2018-06-29T09:37:33.456Z,4.90
2018-06-29T09:40:02.588Z,3.50
2018-06-29T09:42:31.756Z,6.60
2018-06-29T09:45:00.648Z,4.87
2018-06-29T09:47:29.912Z,5.37
2018-06-29T09:49:58.825Z,4.07
2018-06-29T09:52:28.212Z,5.20
2018-06-29T09:54:57.209Z,4.53
2018-06-29T09:57:26.093Z,4.43
2018-06-29T09:59:54.950Z,4.47
2018-06-29T10:02:31.609Z,4.23
2018-06-29T10:04:53.370Z,5.13
2018-06-29T10:07:22.204Z,6.17
2018-06-29T10:09:51.438Z,4.57
2018-06-29T10:12:20.329Z,3.93
2018-06-29T10:14:48.776Z,2.90
2018-06-29T10:17:17.576Z,5.97
2018-06-29T10:19:46.532Z,5.33
2018-06-29T10:22:15.394Z,4.77
2018-06-29T10:24:43.996Z,4.43
2018-06-29T10:27:12.804Z,3.63
2018-06-29T10:29:41.628Z,4.50
2018-06-29T10:32:10.509Z,3.40
2018-06-29T10:34:39.425Z,4.67
2018-06-29T10:37:08.380Z,6.10
2018-06-29T10:39:37.312Z,6.37
2018-06-29T10:42:06.206Z,4.33
2018-06-29T10:44:35.102Z,4.53
2018-06-29T10:47:03.937Z,6.33
2018-06-29T10:49:32.956Z,5.63
2018-06-29T10:52:01.971Z,8.10
2018-06-29T10:54:30.765Z,5.77
2018-06-29T10:56:59.689Z,4.23
2018-06-29T10:59:28.566Z,4.53
2018-06-29T11:01:57.579Z,3.50
2018-06-29T11:04:26.153Z,5.37
2018-06-29T11:06:55.302Z,4.10
2018-06-29T11:09:24.144Z,3.43
2018-06-29T11:11:54.751Z,3.30
2018-06-29T11:14:23.568Z,2.87
2018-06-29T11:16:52.648Z,4.43
2018-06-29T11:19:21.526Z,4.90
2018-06-29T11:21:50.360Z,7.17
2018-06-29T11:24:19.201Z,4.43
2018-06-29T11:26:48.296Z,4.73
2018-06-29T11:29:17.229Z,5.60
2018-06-29T11:31:46.237Z,2.80
2018-06-29T11:34:14.685Z,6.77
2018-06-29T11:36:43.919Z,3.97
2018-06-29T11:39:14.320Z,2.50
2018-06-29T11:41:43.687Z,2.73
2018-06-29T11:44:13.312Z,5.97
2018-06-29T11:46:42.370Z,6.03
2018-06-29T11:49:12.380Z,5.03
2018-06-29T11:51:41.516Z,4.67
2018-06-29T11:54:10.727Z,3.07
2018-06-29T11:56:39.761Z,4.10
2018-06-29T11:59:09.056Z,4.50
2018-06-29T12:01:38.441Z,4.10
2018-06-29T12:04:08.585Z,4.63
2018-06-29T12:06:37.870Z,5.07
2018-06-29T12:09:10.169Z,3.37
2018-06-29T12:11:39.004Z,2.97
2018-06-29T12:14:08.476Z,5.37
2018-06-29T12:16:37.412Z,3.83
2018-06-29T12:19:06.464Z,3.87
2018-06-29T12:21:35.592Z,3.60
2018-06-29T12:24:04.776Z,4.50
2018-06-29T12:26:33.826Z,4.43
2018-06-29T12:29:02.917Z,5.20
2018-06-29T12:31:31.853Z,4.17
2018-06-29T12:34:01.139Z,3.20
2018-06-29T12:36:30.276Z,3.53
2018-06-29T12:39:00.612Z,4.23
2018-06-29T12:41:30.094Z,3.63
2018-06-29T12:43:59.188Z,5.10
2018-06-29T12:46:28.054Z,3.90
2018-06-29T12:48:57.049Z,2.30
2018-06-29T12:51:26.345Z,3.33
2018-06-29T12:53:55.388Z,7.00
2018-06-29T12:56:24.362Z,3.73
2018-06-29T12:58:53.410Z,3.33
2018-06-29T13:01:22.356Z,4.43
2018-06-29T13:03:51.645Z,3.70
2018-06-29T13:06:21.632Z,3.27
2018-06-29T13:08:51.067Z,3.00
2018-06-29T13:11:20.183Z,2.20
2018-06-29T13:13:49.029Z,1.80
2018-06-29T13:16:17.956Z,1.97
2018-06-29T13:18:46.882Z,5.77
2018-06-29T13:21:16.049Z,3.17
2018-06-29T13:23:47.063Z,2.70
2018-06-29T13:26:17.511Z,4.17
2018-06-29T13:28:46.416Z,2.90
2018-06-29T13:31:15.347Z,3.80
2018-06-29T13:33:44.339Z,2.83
2018-06-29T13:36:13.324Z,2.92
2018-06-29T13:38:43.661Z,3.65
2018-06-29T13:41:14.071Z,2.70
2018-06-29T13:43:43.215Z,2.55
2018-06-29T13:46:12.989Z,5.28
2018-06-29T13:48:41.977Z,1.72
2018-06-29T13:51:13.284Z,2.37
2018-06-29T13:53:46.450Z,1.60
2018-06-29T13:56:15.891Z,2.35
2018-06-29T13:58:45.081Z,1.92
2018-06-29T14:01:14.301Z,2.50
2018-06-29T14:03:45.790Z,2.17
2018-06-29T14:06:14.764Z,2.55
2018-06-29T14:08:44.918Z,2.10
2018-06-29T14:11:14.102Z,1.85
2018-06-29T14:13:43.973Z,2.55
2018-06-29T14:16:13.716Z,2.30
2018-06-29T14:18:42.701Z,2.80
2018-06-29T14:21:14.160Z,3.10
2018-06-29T14:23:43.588Z,2.35
2018-06-29T14:26:14.853Z,3.52
2018-06-29T14:28:45.742Z,2.35
2018-06-29T14:31:14.906Z,2.05
2018-06-29T14:33:46.539Z,2.10
2018-06-29T14:36:18.564Z,2.10
2018-06-29T14:38:48.928Z,3.00
2018-06-29T14:41:21.526Z,2.10
2018-06-29T14:43:55.345Z,2.83
2018-06-29T14:46:24.767Z,2.50
2018-06-29T14:48:53.750Z,2.15
2018-06-29T14:51:23.005Z,1.95
2018-06-29T14:53:52.092Z,2.25
2018-06-29T14:56:21.093Z,2.77
2018-06-29T14:58:50.338Z,3.02
2018-06-29T15:01:19.333Z,1.80
2018-06-29T15:03:48.605Z,1.90
2018-06-29T15:06:17.978Z,3.20
2018-06-29T15:08:47.108Z,1.90
2018-06-29T15:11:16.690Z,2.00
2018-06-29T15:13:46.169Z,2.58
2018-06-29T15:16:15.544Z,2.05
2018-06-29T15:18:44.636Z,2.55
2018-06-29T15:21:13.733Z,2.17
2018-06-29T15:23:42.952Z,3.60
2018-06-29T15:26:12.155Z,2.20
2018-06-29T15:28:41.231Z,1.47
2018-06-29T15:31:11.306Z,2.02
2018-06-29T15:33:40.772Z,1.90
2018-06-29T15:36:09.813Z,3.80
2018-06-29T15:38:38.552Z,2.60
2018-06-29T15:41:07.742Z,2.42
2018-06-29T15:43:36.824Z,1.92
2018-06-29T15:46:06.934Z,4.10
2018-06-29T15:48:36.293Z,3.05
2018-06-29T15:51:06.101Z,1.85
2018-06-29T15:53:35.160Z,2.12
2018-06-29T15:56:04.212Z,2.72
2018-06-29T15:58:33.194Z,2.00
2018-06-29T16:01:04.317Z,2.55
2018-06-29T16:03:34.747Z,3.00
2018-06-29T16:06:04.825Z,2.83
2018-06-29T16:08:34.177Z,4.47
2018-06-29T16:11:04.463Z,2.30
2018-06-29T16:13:33.614Z,3.12
2018-06-29T16:16:02.623Z,2.37
2018-06-29T16:18:31.602Z,2.40
2018-06-29T16:21:01.858Z,2.67
2018-06-29T16:23:30.807Z,2.40
2018-06-29T16:25:59.914Z,2.62
2018-06-29T16:28:30.289Z,2.22
2018-06-29T16:30:59.299Z,1.92
2018-06-29T16:33:28.362Z,2.22
2018-06-29T16:35:57.486Z,3.58
2018-06-29T16:38:26.550Z,2.60
2018-06-29T16:40:55.524Z,2.00
2018-06-29T16:43:24.484Z,3.22
2018-06-29T16:45:53.401Z,2.00
2018-06-29T16:48:22.639Z,2.15
2018-06-29T16:50:51.621Z,2.17
2018-06-29T16:53:20.503Z,3.12
2018-06-29T16:55:49.351Z,1.90
2018-06-29T16:58:18.200Z,2.00
2018-06-29T17:00:47.229Z,2.10
2018-06-29T17:03:17.425Z,4.62
2018-06-29T17:05:47.362Z,2.22
2018-06-29T17:08:16.552Z,1.80
2018-06-29T17:10:45.525Z,2.08
2018-06-29T17:13:14.438Z,2.27
2018-06-29T17:15:43.457Z,1.95
2018-06-29T17:18:12.321Z,2.87
2018-06-29T17:20:41.194Z,2.00
2018-06-29T17:23:13.021Z,2.00
2018-06-29T17:25:41.909Z,2.62
2018-06-29T17:28:11.637Z,2.42
2018-06-29T17:30:40.733Z,2.30
2018-06-29T17:33:09.823Z,2.00
2018-06-29T17:35:39.102Z,2.17
2018-06-29T17:38:08.899Z,2.27
2018-06-29T17:40:46.664Z,1.82
2018-06-29T17:43:15.548Z,2.08
2018-06-29T17:45:44.400Z,2.10
2018-06-29T17:48:13.285Z,2.15
2018-06-29T17:50:42.145Z,2.92
2018-06-29T17:53:11.006Z,2.95
2018-06-29T17:55:39.834Z,2.02
2018-06-29T17:58:08.966Z,2.42
2018-06-29T18:00:38.114Z,1.92
2018-06-29T18:03:07.208Z,3.95
2018-06-29T18:05:36.234Z,2.58
2018-06-29T18:08:04.940Z,2.10
2018-06-29T18:10:33.840Z,1.98
2018-06-29T18:13:03.055Z,2.05
2018-06-29T18:15:31.825Z,2.47
2018-06-29T18:18:01.188Z,2.17
2018-06-29T18:20:30.347Z,3.90
2018-06-29T18:22:59.581Z,2.15
2018-06-29T18:25:28.720Z,3.45
2018-06-29T18:27:58.146Z,2.83
2018-06-29T18:30:27.372Z,1.92
2018-06-29T18:32:56.780Z,2.00
2018-06-29T18:35:25.918Z,1.67
2018-06-29T18:37:55.264Z,1.80
2018-06-29T18:40:24.664Z,3.25
2018-06-29T18:42:53.835Z,2.12
2018-06-29T18:45:23.293Z,3.90
2018-06-29T18:47:52.698Z,1.80
2018-06-29T18:50:21.953Z,2.33
2018-06-29T18:52:50.913Z,2.37
2018-06-29T18:55:19.585Z,2.35
2018-06-29T18:57:48.895Z,2.25
2018-06-29T19:00:17.640Z,1.98
2018-06-29T19:02:47.320Z,2.25
2018-06-29T19:05:16.412Z,2.05
2018-06-29T19:07:45.457Z,2.27
2018-06-29T19:10:14.959Z,2.45
2018-06-29T19:12:44.391Z,1.95
2018-06-29T19:15:13.591Z,3.55
2018-06-29T19:17:42.861Z,2.85
2018-06-29T19:20:12.261Z,3.80
2018-06-29T19:22:41.369Z,1.87
2018-06-29T19:25:10.677Z,1.60
2018-06-29T19:27:40.141Z,2.42
2018-06-29T19:30:09.021Z,1.90
2018-06-29T19:32:38.304Z,1.95
2018-06-29T19:35:12.475Z,4.40
2018-06-29T19:37:41.834Z,2.98
2018-06-29T19:40:10.788Z,4.17
2018-06-29T19:42:40.044Z,2.20
2018-06-29T19:45:09.104Z,2.70
2018-06-29T19:47:38.385Z,4.05
2018-06-29T19:50:08.005Z,2.77
2018-06-29T19:52:37.275Z,2.10
2018-06-29T19:55:06.933Z,2.25
2018-06-29T19:57:36.206Z,2.20
2018-06-29T20:00:06.437Z,3.72
2018-06-29T20:02:35.504Z,2.33
2018-06-29T20:05:04.829Z,2.55
2018-06-29T20:07:34.253Z,2.63
2018-06-29T20:10:08.859Z,2.80
2018-06-29T20:12:38.005Z,2.13
2018-06-29T20:15:08.584Z,2.67
2018-06-29T20:17:37.648Z,2.47
2018-06-29T20:20:08.069Z,3.50
2018-06-29T20:22:37.114Z,2.47
2018-06-29T20:25:10.455Z,2.70
2018-06-29T20:27:41.327Z,3.83
2018-06-29T20:30:11.478Z,2.30
2018-06-29T20:32:40.864Z,3.47
2018-06-29T20:35:10.483Z,2.50
2018-06-29T20:37:39.565Z,2.63
2018-06-29T20:40:08.753Z,4.13
2018-06-29T20:42:41.255Z,3.40
2018-06-29T20:45:14.026Z,3.40
2018-06-29T20:47:43.420Z,6.10
2018-06-29T20:50:12.720Z,3.80
2018-06-29T20:52:42.289Z,5.20
2018-06-29T20:55:15.370Z,4.07
2018-06-29T20:57:44.446Z,3.17
2018-06-29T21:00:13.606Z,3.03
2018-06-29T21:02:42.529Z,5.63
2018-06-29T21:05:11.393Z,3.30
2018-06-29T21:07:40.252Z,5.43
2018-06-29T21:10:09.178Z,3.17
2018-06-29T21:12:38.467Z,6.87
2018-06-29T21:15:07.653Z,4.23
2018-06-29T21:17:37.042Z,5.77
2018-06-29T21:20:06.229Z,4.50
2018-06-29T21:22:35.172Z,3.63
2018-06-29T21:25:04.307Z,3.90
2018-06-29T21:27:33.613Z,4.73
2018-06-29T21:30:03.044Z,4.63
2018-06-29T21:32:32.264Z,4.03
2018-06-29T21:35:01.341Z,5.90
2018-06-29T21:37:30.627Z,4.77
2018-06-29T21:39:59.636Z,5.37
2018-06-29T21:42:28.846Z,3.97
2018-06-29T21:44:58.261Z,3.53
2018-06-29T21:47:27.484Z,3.90
2018-06-29T21:49:56.756Z,4.53
2018-06-29T21:52:27.042Z,3.60
2018-06-29T21:54:56.306Z,3.37
2018-06-29T21:57:25.420Z,4.83
2018-06-29T21:59:54.329Z,3.47
2018-06-29T22:02:23.513Z,4.43
2018-06-29T22:04:52.678Z,6.60
2018-06-29T22:07:21.857Z,4.83
2018-06-29T22:09:51.289Z,3.80
2018-06-29T22:12:20.589Z,3.90
2018-06-29T22:14:49.757Z,6.10
2018-06-29T22:17:18.958Z,4.93
2018-06-29T22:19:48.352Z,5.57
2018-06-29T22:22:17.398Z,4.17
2018-06-29T22:24:46.573Z,4.97
2018-06-29T22:27:15.600Z,3.87
2018-06-29T22:29:44.838Z,4.50
2018-06-29T22:32:14.173Z,4.73
2018-06-29T22:34:43.623Z,4.93
2018-06-29T22:37:12.911Z,3.83
2018-06-29T22:39:42.363Z,4.10
2018-06-29T22:42:11.941Z,4.37
2018-06-29T22:44:41.031Z,4.00
2018-06-29T22:47:10.395Z,4.53
2018-06-29T22:49:39.823Z,6.20
2018-06-29T22:52:09.240Z,4.83
2018-06-29T22:54:38.588Z,11.63
2018-06-29T22:57:08.263Z,4.63
2018-06-29T22:59:37.666Z,5.00
2018-06-29T23:02:06.731Z,5.80
2018-06-29T23:04:35.948Z,4.17
2018-06-29T23:07:05.130Z,5.50
2018-06-29T23:09:34.434Z,4.77
2018-06-29T23:12:03.654Z,4.63
2018-06-29T23:14:33.143Z,4.43
2018-06-29T23:17:02.733Z,3.83
2018-06-29T23:19:31.857Z,5.67
2018-06-29T23:22:01.009Z,4.00
2018-06-29T23:24:30.389Z,5.17
2018-06-29T23:27:02.808Z,5.23
2018-06-29T23:29:32.144Z,4.77
2018-06-29T23:32:01.409Z,7.23
2018-06-29T23:34:30.509Z,5.20
2018-06-29T23:36:59.576Z,5.43
2018-06-29T23:39:29.062Z,5.13
2018-06-29T23:41:58.160Z,6.10
2018-06-29T23:44:26.996Z,5.07
2018-06-29T23:46:56.326Z,6.60
2018-06-29T23:49:25.500Z,4.87
2018-06-29T23:51:54.772Z,6.47
2018-06-29T23:54:24.080Z,7.07
2018-06-29T23:56:53.388Z,4.70
2018-06-29T23:59:22.629Z,5.23
